NO-0004 weather

CLOSED Gressholmen Seaplane Base
Oslo, Oslo, Norway

Public forecast

Using degrees Celsius for public forecast. Weather courtesy of forecast.io.

Closest aviation weather report (METAR) to Gressholmen Seaplane Base

Closest report is Oslo, Fornebu Airport, 3.1 nm (5.7 km) WNW. Retrieved 2020/06/04 15:20 UTC (14 minutes ago):

ENFB 041520Z AUTO 30016KT 9999NDV OVC006/// 08/07 Q0997 W///S4

Closest aviation forecast (TAF) to Gressholmen Seaplane Base

Closest forecast is Oslo Gardermoen Airport, 21.9 nm (40.5 km) NNE. Retrieved 2020/06/04 12:57 UTC (3 hours ago):

TAF ENGM 041100Z 0412/0512 12008KT 9999 FEW040 BKN070